Time;durP1;ratioP1;P1;durP2;ratioP2;P2;SDS_P1;SDS_P2;PMS_P1;PMS_P2;Temp;Humidity;BMP_temperature;BMP_pressure;BME280_temperature;BME280_humidity;BME280_pressure;Samples;Min_cycle;Max_cycle;Signal;HPM_P1;HPM_P2
2022/01/18 00:01:36;;;;;;;136.05;27.05;;;0.90;99.90;;;;;;5028853;28;20419;-63
2022/01/18 00:04:05;;;;;;;97.05;26.98;;;0.90;99.90;;;;;;5028574;28;20066;-64
2022/01/18 00:06:33;;;;;;;100.05;25.55;;;0.80;99.90;;;;;;5029623;28;20037;-64
2022/01/18 00:09:01;;;;;;;141.02;27.45;;;0.80;99.90;;;;;;5027458;28;20045;-65
2022/01/18 00:11:34;;;;;;;119.07;31.63;;;0.80;99.90;;;;;;5030451;28;20729;-64
2022/01/18 00:14:09;;;;;;;132.15;29.55;;;0.80;99.90;;;;;;5016949;28;20045;-63
2022/01/18 00:16:49;;;;;;;99.93;26.67;;;0.80;99.90;;;;;;5027201;28;20048;-66
2022/01/18 00:19:22;;;;;;;85.78;26.13;;;0.80;99.90;;;;;;5029787;28;20069;-64
2022/01/18 00:24:31;;;;;;;130.02;27.88;;;0.80;99.90;;;;;;5022652;28;21301;-64
2022/01/18 00:26:58;;;;;;;137.75;30.35;;;0.70;99.90;;;;;;5028102;28;20053;-63
2022/01/18 00:29:28;;;;;;;113.22;26.52;;;0.70;99.90;;;;;;5028728;28;20046;-65
2022/01/18 00:34:30;;;;;;;153.38;28.05;;;0.70;99.90;;;;;;5022722;28;20045;-68
2022/01/18 00:37:34;;;;;;;108.72;26.02;;;0.60;99.90;;;;;;5027548;28;20057;-63
2022/01/18 00:39:53;;;;;;;129.70;26.95;;;0.60;99.90;;;;;;5025333;28;20053;-64
2022/01/18 00:42:20;;;;;;;228.20;29.40;;;0.60;99.90;;;;;;5027541;28;20053;-64
2022/01/18 00:44:48;;;;;;;256.60;29.15;;;0.50;99.90;;;;;;5027908;28;20366;-64
2022/01/18 00:47:16;;;;;;;237.95;28.45;;;0.50;99.90;;;;;;5027249;28;20065;-63
2022/01/18 00:49:46;;;;;;;205.32;29.98;;;0.60;99.90;;;;;;5027561;28;20052;-67
2022/01/18 00:52:17;;;;;;;103.90;26.48;;;0.60;99.90;;;;;;5028579;28;20045;-65
2022/01/18 00:54:46;;;;;;;267.23;32.92;;;0.60;99.90;;;;;;5026169;28;20045;-64
2022/01/18 00:57:14;;;;;;;159.68;26.55;;;0.60;99.90;;;;;;5020912;28;20060;-64
2022/01/18 00:59:44;;;;;;;167.70;30.05;;;0.60;99.90;;;;;;5029145;28;20071;-64
2022/01/18 01:02:16;;;;;;;132.75;25.52;;;0.60;99.90;;;;;;5025785;28;20403;-64
2022/01/18 01:04:49;;;;;;;163.90;25.30;;;0.60;99.90;;;;;;5025347;28;20057;-64
2022/01/18 01:07:22;;;;;;;132.95;26.08;;;0.60;99.90;;;;;;5025443;28;20042;-63
2022/01/18 01:09:51;;;;;;;161.73;24.73;;;0.60;99.90;;;;;;5026394;28;20057;-67
2022/01/18 01:12:22;;;;;;;114.53;22.73;;;0.60;99.90;;;;;;5026924;28;20389;-64
2022/01/18 01:14:52;;;;;;;223.68;27.25;;;0.60;99.90;;;;;;5027278;28;20057;-68
2022/01/18 01:17:46;;;;;;;;;;;0.60;99.90;;;;;;5027666;28;20056;-63
2022/01/18 01:34:35;;;;;;;165.50;23.55;;;0.50;99.90;;;;;;5027975;28;20053;-63
2022/01/18 01:41:45;;;;;;;195.30;26.10;;;0.50;99.90;;;;;;5026862;28;20041;-63
2022/01/18 01:45:26;;;;;;;126.22;23.25;;;0.50;99.90;;;;;;5027952;28;20045;-64
2022/01/18 01:47:55;;;;;;;118.00;23.77;;;0.40;99.90;;;;;;5029388;28;20053;-64
2022/01/18 01:50:26;;;;;;;87.70;21.77;;;0.40;99.90;;;;;;5029371;28;20042;-63
2022/01/18 01:52:56;;;;;;;148.90;22.98;;;0.40;99.90;;;;;;5028866;28;20049;-63
2022/01/18 01:55:25;;;;;;;125.15;25.48;;;0.40;99.90;;;;;;5027283;28;20053;-64
2022/01/18 01:57:52;;;;;;;141.15;23.00;;;0.30;99.90;;;;;;5028263;28;20109;-65
2022/01/18 02:00:20;;;;;;;92.93;21.45;;;0.30;99.90;;;;;;5027713;28;20057;-63
2022/01/18 02:02:48;;;;;;;100.28;20.25;;;0.30;99.90;;;;;;5027784;28;20042;-64
2022/01/18 02:05:16;;;;;;;187.55;23.60;;;0.20;99.90;;;;;;5027534;28;20045;-63
2022/01/18 02:07:44;;;;;;;140.38;22.27;;;0.20;99.90;;;;;;5025295;28;20034;-64
2022/01/18 02:10:14;;;;;;;265.20;24.90;;;0.20;99.90;;;;;;5027138;28;20074;-63
2022/01/18 02:12:41;;;;;;;185.30;24.30;;;0.20;99.90;;;;;;5018122;28;20049;-65
2022/01/18 02:15:14;;;;;;;324.50;29.50;;;0.20;99.90;;;;;;5027160;28;20404;-63
2022/01/18 02:23:29;;;;;;;127.97;22.88;;;0.20;99.90;;;;;;5025880;28;20062;-63
2022/01/18 02:25:57;;;;;;;236.48;25.67;;;0.20;99.90;;;;;;5027859;28;20053;-63
2022/01/18 02:28:27;;;;;;;274.55;24.58;;;0.20;99.90;;;;;;5027074;28;20041;-64
2022/01/18 02:30:55;;;;;;;267.42;26.55;;;0.10;99.90;;;;;;5023106;28;20603;-63
2022/01/18 02:33:24;;;;;;;;;;;0.10;99.90;;;;;;5012149;28;20061;-63
2022/01/18 02:35:52;;;;;;;171.23;21.05;;;0.10;99.90;;;;;;5011879;28;20293;-64
2022/01/18 02:38:21;;;;;;;177.77;21.25;;;0.00;99.90;;;;;;5018267;28;20041;-64
2022/01/18 02:40:49;;;;;;;;;;;0.00;99.90;;;;;;5012415;28;20045;-64
2022/01/18 02:46:04;;;;;;;96.43;20.45;;;0.00;99.90;;;;;;5017811;28;20053;-63
2022/01/18 02:48:32;;;;;;;102.20;18.52;;;-0.10;99.90;;;;;;5031051;28;20420;-66
2022/01/18 02:50:59;;;;;;;54.47;18.95;;;-0.10;99.90;;;;;;5031512;28;20050;-63
2022/01/18 02:53:27;;;;;;;116.68;21.48;;;-0.20;99.90;;;;;;5030249;28;20052;-65
2022/01/18 02:55:57;;;;;;;68.20;18.73;;;-0.20;99.90;;;;;;5030211;28;20060;-65
2022/01/18 02:58:34;;;;;;;57.83;17.77;;;-0.30;99.90;;;;;;5030894;28;20042;-64
2022/01/18 03:03:37;;;;;;;57.80;17.65;;;-0.30;99.90;;;;;;5031591;28;20042;-63
2022/01/18 03:06:07;;;;;;;92.78;20.70;;;-0.40;99.90;;;;;;5031211;28;20045;-64
2022/01/18 03:08:34;;;;;;;112.28;20.50;;;-0.40;99.90;;;;;;5031367;28;20045;-65
2022/01/18 03:11:03;;;;;;;73.03;19.15;;;-0.40;99.90;;;;;;5031476;28;20068;-66
2022/01/18 03:13:30;;;;;;;57.42;19.55;;;-0.50;99.90;;;;;;5031012;28;20041;-64
2022/01/18 03:15:58;;;;;;;145.38;22.83;;;-0.50;99.90;;;;;;5031275;28;20054;-64
2022/01/18 03:18:26;;;;;;;115.75;21.80;;;-0.50;99.90;;;;;;5031430;28;20045;-66
2022/01/18 03:20:54;;;;;;;83.30;22.90;;;-0.50;99.90;;;;;;5031415;28;20058;-64
2022/01/18 03:23:23;;;;;;;91.28;20.20;;;-0.50;99.90;;;;;;5031309;28;20064;-63
2022/01/18 03:26:02;;;;;;;154.45;21.08;;;-0.60;99.90;;;;;;5031139;28;20088;-63
2022/01/18 03:28:29;;;;;;;129.98;21.42;;;-0.50;99.90;;;;;;5031232;28;20053;-62
2022/01/18 03:31:00;;;;;;;87.53;20.10;;;-0.50;99.90;;;;;;5030130;28;20049;-63
2022/01/18 03:33:28;;;;;;;114.38;21.80;;;-0.60;99.90;;;;;;5030022;28;20528;-64
2022/01/18 03:35:57;;;;;;;66.70;20.05;;;-0.60;99.90;;;;;;5029978;28;20060;-64
2022/01/18 03:38:29;;;;;;;72.85;18.95;;;-0.60;99.90;;;;;;5030180;28;20056;-64
2022/01/18 03:41:03;;;;;;;106.63;20.30;;;-0.70;99.90;;;;;;5031177;28;20512;-64
2022/01/18 03:43:34;;;;;;;104.03;20.50;;;-0.70;99.90;;;;;;5031153;28;20052;-66
2022/01/18 03:46:05;;;;;;;136.63;23.75;;;-0.70;99.90;;;;;;5031716;28;20050;-66
2022/01/18 03:48:36;;;;;;;50.20;18.65;;;-0.80;99.90;;;;;;5033338;28;20041;-66
2022/01/18 03:51:06;;;;;;;86.25;19.58;;;-0.80;99.90;;;;;;5035295;28;20056;-64
2022/01/18 03:53:34;;;;;;;53.05;18.55;;;-0.80;99.90;;;;;;5034352;28;20053;-67
2022/01/18 03:56:02;;;;;;;58.35;19.25;;;-0.80;99.90;;;;;;5037208;28;20045;-65
2022/01/18 03:58:30;;;;;;;76.93;22.90;;;-0.80;99.90;;;;;;5037656;28;20496;-67
2022/01/18 04:00:58;;;;;;;91.72;22.23;;;-0.80;99.90;;;;;;5038360;28;20049;-66
2022/01/18 04:03:27;;;;;;;51.00;19.45;;;-0.70;99.90;;;;;;5035963;28;20208;-64
2022/01/18 04:05:56;;;;;;;46.15;17.88;;;-0.70;99.90;;;;;;5035118;28;20045;-69
2022/01/18 04:08:25;;;;;;;42.58;18.95;;;-0.70;99.90;;;;;;5035213;28;20049;-65
2022/01/18 04:10:53;;;;;;;49.70;19.08;;;-0.70;99.90;;;;;;5034315;28;20049;-63
2022/01/18 04:13:20;;;;;;;43.47;18.35;;;-0.70;99.90;;;;;;5034432;28;20485;-64
2022/01/18 04:15:48;;;;;;;45.42;18.55;;;-0.70;99.90;;;;;;5034190;28;20049;-64
2022/01/18 04:19:21;;;;;;;80.07;19.20;;;-0.60;99.90;;;;;;5034224;28;20077;-63
2022/01/18 04:29:09;;;;;;;56.10;18.80;;;-0.60;99.90;;;;;;5034212;28;20045;-63
2022/01/18 04:31:38;;;;;;;63.85;19.13;;;-0.60;99.90;;;;;;5032848;28;20044;-63
2022/01/18 04:34:05;;;;;;;92.07;18.50;;;-0.60;99.90;;;;;;5033736;28;20045;-64
2022/01/18 04:36:33;;;;;;;54.30;19.10;;;-0.60;99.90;;;;;;5032608;28;20046;-64
2022/01/18 04:39:00;;;;;;;82.05;17.95;;;-0.60;99.90;;;;;;5033958;28;20042;-65
2022/01/18 04:41:30;;;;;;;85.18;20.38;;;-0.70;99.90;;;;;;5032593;28;20049;-64
2022/01/18 04:49:15;;;;;;;151.80;21.63;;;-0.70;99.90;;;;;;5033689;28;20049;-65
2022/01/18 04:51:45;;;;;;;95.47;19.60;;;-0.80;99.90;;;;;;5033747;28;20397;-64
2022/01/18 04:54:15;;;;;;;129.32;20.35;;;-0.80;99.90;;;;;;5033472;28;20046;-64
2022/01/18 04:59:11;;;;;;;73.40;20.92;;;-0.90;99.90;;;;;;5033125;28;20046;-64
2022/01/18 05:01:40;;;;;;;58.45;19.00;;;-0.90;99.90;;;;;;5033143;28;20053;-63
2022/01/18 05:04:08;;;;;;;85.78;18.92;;;-1.00;99.90;;;;;;5033417;28;20045;-63
2022/01/18 05:06:36;;;;;;;57.58;17.33;;;-1.00;99.90;;;;;;5033289;28;20048;-63
2022/01/18 05:09:09;;;;;;;50.10;19.38;;;-1.10;99.90;;;;;;5033377;28;20042;-63
2022/01/18 05:14:39;;;;;;;47.00;18.45;;;-1.10;99.90;;;;;;5031744;28;20056;-64
2022/01/18 05:20:24;;;;;;;59.28;20.42;;;-1.30;99.90;;;;;;5033040;28;20045;-63
2022/01/18 05:22:58;;;;;;;50.00;19.23;;;-1.30;99.90;;;;;;5032987;28;20048;-64
2022/01/18 05:25:29;;;;;;;54.08;19.83;;;-1.40;99.90;;;;;;5031865;28;20052;-63
2022/01/18 05:27:59;;;;;;;52.60;21.27;;;-1.40;99.90;;;;;;5031780;28;20052;-64
2022/01/18 05:30:28;;;;;;;50.00;17.73;;;-1.40;99.90;;;;;;5032959;28;20041;-63
2022/01/18 05:32:55;;;;;;;56.50;18.70;;;-1.40;99.90;;;;;;5032689;28;20053;-63
2022/01/18 05:35:23;;;;;;;58.13;19.30;;;-1.50;99.90;;;;;;5032782;28;20049;-63
2022/01/18 05:37:51;;;;;;;53.78;20.85;;;-1.50;99.90;;;;;;5032853;28;20515;-63
2022/01/18 05:40:19;;;;;;;54.20;20.00;;;-1.60;99.90;;;;;;5032612;28;20520;-63
2022/01/18 05:42:48;;;;;;;46.22;18.25;;;-1.60;99.90;;;;;;5031334;28;20052;-63
2022/01/18 05:45:16;;;;;;;43.80;16.92;;;-1.60;99.90;;;;;;5033803;28;20056;-64
2022/01/18 05:47:45;;;;;;;56.15;20.30;;;-1.60;99.90;;;;;;5024790;28;21615;-63
2022/01/18 05:50:14;;;;;;;49.53;20.25;;;-1.60;99.90;;;;;;5009851;28;20042;-66
2022/01/18 05:52:42;;;;;;;47.17;19.80;;;-1.60;99.90;;;;;;5009488;28;20042;-63
2022/01/18 05:55:10;;;;;;;58.67;19.52;;;-1.60;99.90;;;;;;5009335;28;20417;-63
2022/01/18 05:57:38;;;;;;;56.40;19.27;;;-1.70;99.90;;;;;;5014897;28;20049;-65
2022/01/18 06:00:11;;;;;;;54.15;18.98;;;-1.70;99.90;;;;;;5029152;28;20469;-67
2022/01/18 06:07:56;;;;;;;54.47;18.95;;;-1.80;99.90;;;;;;5013063;28;20576;-63
2022/01/18 06:10:25;;;;;;;59.70;18.65;;;-1.80;99.90;;;;;;5024486;28;20052;-63
2022/01/18 06:12:53;;;;;;;50.88;18.85;;;-1.80;99.90;;;;;;5028226;28;20045;-63
2022/01/18 06:15:20;;;;;;;49.30;19.05;;;-1.80;99.90;;;;;;5027150;28;20048;-63
2022/01/18 06:17:48;;;;;;;53.92;19.75;;;-1.80;99.90;;;;;;5021291;28;20394;-63
2022/01/18 06:20:15;;;;;;;52.90;19.10;;;-1.80;99.90;;;;;;5004858;28;20042;-63
2022/01/18 06:22:43;;;;;;;59.58;20.98;;;-1.80;99.90;;;;;;5012003;28;20480;-64
2022/01/18 06:25:11;;;;;;;58.00;19.35;;;-1.90;99.90;;;;;;5025609;28;20053;-64
2022/01/18 06:27:39;;;;;;;58.42;20.42;;;-1.90;99.90;;;;;;5024238;28;20042;-63
2022/01/18 06:30:09;;;;;;;60.55;20.27;;;-1.90;99.90;;;;;;5025781;28;20499;-64
2022/01/18 06:32:39;;;;;;;68.25;21.88;;;-1.90;99.90;;;;;;5026341;28;20049;-63
2022/01/18 06:35:08;;;;;;;55.97;19.40;;;-1.90;99.90;;;;;;5028282;28;20481;-65
2022/01/18 06:37:35;;;;;;;59.53;20.80;;;-1.90;99.90;;;;;;5028463;28;20485;-64
2022/01/18 06:40:04;;;;;;;61.70;21.38;;;-1.90;99.90;;;;;;5027625;28;20747;-63
2022/01/18 06:42:35;;;;;;;58.50;20.83;;;-1.90;99.90;;;;;;5025266;28;20041;-65
2022/01/18 06:45:04;;;;;;;56.53;20.55;;;-1.90;99.90;;;;;;5025432;28;20528;-64
2022/01/18 06:47:31;;;;;;;54.60;20.57;;;-1.90;99.90;;;;;;5024692;28;20053;-63
2022/01/18 06:49:59;;;;;;;60.42;20.42;;;-1.90;99.90;;;;;;5006567;28;20041;-66
2022/01/18 06:52:26;;;;;;;55.10;19.90;;;-1.90;99.90;;;;;;5013785;28;20052;-71
2022/01/18 06:54:54;;;;;;;48.35;18.73;;;-2.00;99.90;;;;;;5028387;28;20049;-69
2022/01/18 06:57:22;;;;;;;51.72;18.20;;;-1.90;99.90;;;;;;5032592;28;20041;-72
2022/01/18 06:59:49;;;;;;;47.22;17.55;;;-2.00;99.90;;;;;;5031701;28;20054;-66
2022/01/18 07:02:17;;;;;;;50.83;20.63;;;-1.90;99.90;;;;;;5028560;28;20053;-70
2022/01/18 07:04:45;;;;;;;52.25;18.15;;;-2.00;99.90;;;;;;5011310;28;20049;-63
2022/01/18 07:07:13;;;;;;;45.22;18.58;;;-1.90;99.90;;;;;;5011167;28;20057;-66
2022/01/18 07:09:41;;;;;;;52.42;20.08;;;-1.90;99.90;;;;;;5028019;28;20050;-64
2022/01/18 07:12:11;;;;;;;46.17;18.65;;;-1.90;99.90;;;;;;5028095;28;20053;-66
2022/01/18 07:14:40;;;;;;;53.47;20.17;;;-1.90;99.90;;;;;;5026829;28;20065;-66
2022/01/18 07:17:08;;;;;;;55.95;20.40;;;-1.90;99.90;;;;;;5026476;28;20041;-64
2022/01/18 07:19:38;;;;;;;47.75;17.63;;;-1.80;99.90;;;;;;5012660;28;20053;-63
2022/01/18 07:22:06;;;;;;;46.13;20.02;;;-1.90;99.90;;;;;;5010621;28;20535;-65
2022/01/18 07:24:40;;;;;;;53.50;19.63;;;-1.80;99.90;;;;;;5030031;28;20053;-64
2022/01/18 07:27:10;;;;;;;52.83;20.77;;;-1.80;99.90;;;;;;5029435;28;20060;-64
2022/01/18 07:29:41;;;;;;;51.05;20.50;;;-1.80;99.90;;;;;;5028980;28;20405;-63
2022/01/18 07:32:10;;;;;;;45.47;19.40;;;-1.80;99.90;;;;;;5029209;28;20124;-64
2022/01/18 07:34:46;;;;;;;50.20;18.92;;;-1.80;99.90;;;;;;5016963;28;20052;-64
2022/01/18 07:37:14;;;;;;;50.67;19.60;;;-1.70;99.90;;;;;;5013746;28;20046;-64
2022/01/18 07:39:49;;;;;;;55.60;19.80;;;-1.70;99.90;;;;;;5031843;28;20056;-63
2022/01/18 07:42:17;;;;;;;55.35;20.10;;;-1.70;99.90;;;;;;5031549;28;20049;-63
2022/01/18 07:44:46;;;;;;;52.67;20.15;;;-1.60;99.90;;;;;;5031596;28;20499;-63
2022/01/18 07:47:14;;;;;;;53.80;20.15;;;-1.60;99.90;;;;;;5031757;28;20049;-64
2022/01/18 07:49:46;;;;;;;57.33;20.48;;;-1.60;99.90;;;;;;5016632;28;20057;-68
2022/01/18 07:52:16;;;;;;;52.65;19.65;;;-1.60;99.90;;;;;;5014780;28;20053;-64
2022/01/18 07:54:44;;;;;;;59.45;22.23;;;-1.50;99.90;;;;;;5030185;28;20523;-63
2022/01/18 07:57:14;;;;;;;62.85;21.52;;;-1.50;99.90;;;;;;5030059;28;20049;-63
2022/01/18 07:59:42;;;;;;;65.70;21.27;;;-1.50;99.90;;;;;;5013478;28;20064;-63
2022/01/18 08:02:10;;;;;;;64.07;21.35;;;-1.50;99.90;;;;;;5028782;28;20056;-64
2022/01/18 08:04:38;;;;;;;55.60;22.08;;;-1.40;99.90;;;;;;5027018;28;20048;-63
2022/01/18 08:07:06;;;;;;;49.92;19.95;;;-1.40;99.90;;;;;;5037144;28;20042;-63
2022/01/18 08:09:36;;;;;;;56.63;19.83;;;-1.40;99.90;;;;;;5031035;28;20053;-65
2022/01/18 08:12:06;;;;;;;51.15;18.67;;;-1.30;99.90;;;;;;5018294;28;20302;-63
2022/01/18 08:14:34;;;;;;;45.83;18.38;;;-1.30;99.90;;;;;;5029845;28;20046;-64
2022/01/18 08:17:06;;;;;;;48.53;19.48;;;-1.30;99.90;;;;;;5029730;28;20045;-67
2022/01/18 08:19:35;;;;;;;53.58;21.58;;;-1.20;99.90;;;;;;5013429;28;20045;-63
2022/01/18 08:22:09;;;;;;;56.15;22.00;;;-1.20;99.90;;;;;;5029671;28;20049;-63
2022/01/18 08:24:37;;;;;;;57.00;21.63;;;-1.20;99.90;;;;;;5029748;28;20042;-63
2022/01/18 08:27:05;;;;;;;54.10;20.13;;;-1.10;99.90;;;;;;5012871;28;20058;-63
2022/01/18 08:29:34;;;;;;;58.30;22.15;;;-1.10;99.90;;;;;;5026472;28;20041;-63
2022/01/18 08:32:16;;;;;;;55.80;23.20;;;-1.10;99.90;;;;;;5027017;28;20045;-63
2022/01/18 08:34:44;;;;;;;56.17;23.10;;;-1.10;99.90;;;;;;5027567;28;20425;-63
2022/01/18 08:37:12;;;;;;;61.95;24.10;;;-1.00;99.90;;;;;;5028737;28;20056;-62
2022/01/18 08:39:40;;;;;;;54.90;21.40;;;-1.00;99.90;;;;;;5029539;28;20057;-62
2022/01/18 08:42:08;;;;;;;66.30;23.77;;;-0.90;99.90;;;;;;5018926;28;20072;-65
2022/01/18 08:44:36;;;;;;;63.75;22.17;;;-0.90;99.90;;;;;;5030285;28;20046;-62
2022/01/18 08:47:19;;;;;;;69.47;24.38;;;-0.90;99.90;;;;;;5030511;28;20045;-63
2022/01/18 08:49:47;;;;;;;64.18;23.42;;;-0.90;99.90;;;;;;5030569;28;20049;-65
2022/01/18 08:52:15;;;;;;;64.15;22.92;;;-0.80;99.90;;;;;;5031226;28;20061;-66
2022/01/18 08:54:43;;;;;;;60.63;22.73;;;-0.80;99.90;;;;;;5031850;28;20045;-63
2022/01/18 08:57:12;;;;;;;62.35;23.60;;;-0.80;99.90;;;;;;5018581;28;20085;-69
2022/01/18 08:59:41;;;;;;;55.92;22.20;;;-0.70;99.90;;;;;;5028502;28;20050;-64
2022/01/18 09:02:10;;;;;;;60.90;22.48;;;-0.70;99.90;;;;;;5018833;28;20053;-67
2022/01/18 09:04:39;;;;;;;66.75;23.65;;;-0.70;99.90;;;;;;5025937;28;20041;-64
2022/01/18 09:07:08;;;;;;;78.93;26.65;;;-0.60;99.90;;;;;;5029501;28;20052;-66
2022/01/18 09:09:39;;;;;;;71.07;23.33;;;-0.60;99.90;;;;;;5029830;28;20045;-67
2022/01/18 09:12:10;;;;;;;65.43;23.95;;;-0.60;99.90;;;;;;5024173;28;20053;-64
2022/01/18 09:14:38;;;;;;;54.08;21.23;;;-0.50;99.90;;;;;;5028363;28;20050;-64
2022/01/18 09:17:06;;;;;;;68.53;22.48;;;-0.50;99.90;;;;;;5029577;28;20049;-65
2022/01/18 09:19:34;;;;;;;65.15;24.75;;;-0.50;99.90;;;;;;5029778;28;20045;-67
2022/01/18 09:22:03;;;;;;;63.67;24.35;;;-0.50;99.90;;;;;;5029517;28;20377;-67
2022/01/18 09:24:31;;;;;;;75.13;25.70;;;-0.40;99.90;;;;;;5031428;28;20046;-65
2022/01/18 09:27:00;;;;;;;58.28;24.90;;;-0.40;99.90;;;;;;5022916;28;20050;-65
2022/01/18 09:29:29;;;;;;;62.30;23.08;;;-0.40;99.90;;;;;;5029062;28;20045;-63
2022/01/18 09:31:58;;;;;;;58.38;22.73;;;-0.30;99.90;;;;;;5029742;28;20397;-63
2022/01/18 09:34:26;;;;;;;76.68;26.58;;;-0.30;99.90;;;;;;5029398;28;20064;-63
2022/01/18 09:36:53;;;;;;;70.32;25.75;;;-0.30;99.90;;;;;;5028188;28;20045;-63
2022/01/18 09:39:21;;;;;;;76.50;26.27;;;-0.20;99.90;;;;;;5029067;28;20056;-63
2022/01/18 09:41:51;;;;;;;57.42;23.33;;;-0.20;99.90;;;;;;5053410;28;20065;-63
2022/01/18 09:44:20;;;;;;;65.80;26.05;;;-0.10;99.90;;;;;;5028179;28;20061;-63
2022/01/18 09:46:49;;;;;;;70.80;27.08;;;-0.10;99.90;;;;;;5029235;28;20049;-64
2022/01/18 09:49:18;;;;;;;68.25;25.75;;;-0.10;99.90;;;;;;5029030;28;20037;-63
2022/01/18 09:51:46;;;;;;;76.22;27.55;;;-0.10;99.90;;;;;;5028908;28;20481;-63
2022/01/18 09:54:17;;;;;;;71.50;26.73;;;-0.10;99.90;;;;;;5029149;28;20042;-62
2022/01/18 09:56:45;;;;;;;76.68;25.98;;;-0.10;99.90;;;;;;5022785;28;20046;-64
2022/01/18 09:59:13;;;;;;;78.13;28.60;;;0.00;99.90;;;;;;5027169;28;20060;-62
2022/01/18 10:01:41;;;;;;;66.18;25.98;;;0.00;99.90;;;;;;5029155;28;20052;-62
2022/01/18 10:04:15;;;;;;;78.40;25.27;;;0.00;99.90;;;;;;5027627;28;20056;-63
2022/01/18 10:06:43;;;;;;;59.65;22.08;;;0.00;99.90;;;;;;5029270;28;20107;-62
2022/01/18 10:09:16;;;;;;;57.90;21.55;;;0.00;99.90;;;;;;5027732;28;20050;-63
2022/01/18 10:12:00;;;;;;;56.90;21.17;;;0.00;99.90;;;;;;5023225;28;20049;-63
2022/01/18 10:14:29;;;;;;;52.55;21.98;;;0.00;99.90;;;;;;5022828;28;20088;-63
2022/01/18 10:16:57;;;;;;;86.88;22.38;;;0.00;99.90;;;;;;5028930;28;20057;-63
2022/01/18 10:19:41;;;;;;;57.95;22.17;;;0.00;99.90;;;;;;5028468;28;20050;-63
2022/01/18 10:22:23;;;;;;;70.55;23.25;;;0.10;99.90;;;;;;5028778;28;20046;-65
2022/01/18 10:24:52;;;;;;;63.97;23.65;;;0.10;99.90;;;;;;5028582;28;20072;-64
2022/01/18 10:27:20;;;;;;;63.58;23.40;;;0.10;99.90;;;;;;5020340;28;20050;-63
2022/01/18 10:29:50;;;;;;;66.20;23.17;;;0.20;99.90;;;;;;5027814;28;20045;-64
2022/01/18 10:32:28;;;;;;;;;;;0.20;99.90;;;;;;5031201;28;20052;-68
2022/01/18 10:37:30;;;;;;;68.00;22.10;;;0.20;99.90;;;;;;5028553;28;20069;-68
2022/01/18 10:40:12;;;;;;;68.85;22.52;;;0.30;99.90;;;;;;5028645;28;20038;-66
2022/01/18 10:42:47;;;;;;;63.72;23.38;;;0.40;99.90;;;;;;5022376;28;20488;-67
2022/01/18 10:45:22;;;;;;;94.13;31.40;;;0.50;99.90;;;;;;5007825;28;20045;-68
2022/01/18 10:47:57;;;;;;;77.38;27.40;;;0.60;99.90;;;;;;5024598;28;20056;-65
2022/01/18 10:50:30;;;;;;;76.78;27.85;;;0.80;99.90;;;;;;5028514;28;20393;-65
2022/01/18 10:53:14;;;;;;;69.40;25.27;;;1.00;99.90;;;;;;5060278;28;20050;-65
2022/01/18 10:55:44;;;;;;;75.95;26.80;;;1.20;99.90;;;;;;5025200;28;20045;-70
2022/01/18 10:58:15;;;;;;;79.10;27.80;;;1.30;99.90;;;;;;5054145;28;20424;-68
2022/01/18 11:00:43;;;;;;;70.90;25.85;;;1.50;99.90;;;;;;5027260;28;20049;-69
2022/01/18 11:03:11;;;;;;;74.13;25.65;;;1.60;99.90;;;;;;5026818;28;20053;-69
2022/01/18 11:05:41;;;;;;;75.63;27.27;;;1.80;99.90;;;;;;5026645;28;20060;-67
2022/01/18 11:08:14;;;;;;;77.35;26.70;;;1.90;99.90;;;;;;5024835;28;20049;-71
2022/01/18 11:10:47;;;;;;;69.07;25.45;;;2.10;99.90;;;;;;5026786;28;20061;-66
2022/01/18 11:13:35;;;;;;;59.75;23.98;;;2.20;99.90;;;;;;5022791;28;20116;-66
2022/01/18 11:16:13;;;;;;;74.38;24.70;;;2.40;99.90;;;;;;5027556;28;20042;-66
2022/01/18 11:18:45;;;;;;;65.65;24.25;;;2.60;99.90;;;;;;5028043;28;20587;-67
2022/01/18 11:21:13;;;;;;;61.92;24.27;;;2.70;99.90;;;;;;5028303;28;20052;-68
2022/01/18 11:23:41;;;;;;;64.07;22.73;;;2.90;99.90;;;;;;5027964;28;20056;-65
2022/01/18 11:26:10;;;;;;;54.70;20.80;;;3.10;99.90;;;;;;5027839;28;20623;-64
2022/01/18 11:28:38;;;;;;;52.35;23.05;;;3.30;99.90;;;;;;5022596;28;20056;-64
2022/01/18 11:31:10;;;;;;;57.25;27.63;;;3.40;99.90;;;;;;5026846;28;20053;-64
2022/01/18 11:33:49;;;;;;;46.60;21.15;;;3.60;99.90;;;;;;5026305;28;20489;-64
2022/01/18 11:36:23;;;;;;;46.50;20.02;;;3.90;99.90;;;;;;5026574;28;20045;-64
2022/01/18 11:38:57;;;;;;;49.80;21.10;;;4.10;99.90;;;;;;5027695;28;20049;-64
2022/01/18 11:41:26;;;;;;;44.75;18.98;;;4.30;99.90;;;;;;5011918;28;20058;-63
2022/01/18 11:43:57;;;;;;;42.40;19.10;;;4.60;99.90;;;;;;5019739;28;20052;-63
2022/01/18 11:46:40;;;;;;;41.22;19.55;;;4.80;99.90;;;;;;5025493;28;20053;-64
2022/01/18 11:49:30;;;;;;;39.20;19.52;;;5.10;99.90;;;;;;5027443;28;20041;-64
2022/01/18 11:52:06;;;;;;;;;;;5.40;99.90;;;;;;5027976;28;20049;-67
2022/01/18 11:55:17;;;;;;;87.53;37.80;;;5.70;99.90;;;;;;5024209;28;19921;-63
2022/01/18 11:57:25;;;;;;;64.80;29.67;;;6.00;99.90;;;;;;5019124;28;20057;-64
2022/01/18 12:00:00;;;;;;;49.97;24.30;;;6.20;99.90;;;;;;5024979;28;20057;-64
2022/01/18 12:02:41;;;;;;;41.90;18.65;;;6.50;99.90;;;;;;5027250;28;20058;-64
2022/01/18 12:05:20;;;;;;;35.28;15.85;;;6.70;99.90;;;;;;5026465;28;20050;-64
2022/01/18 12:08:01;;;;;;;39.42;15.13;;;7.00;99.90;;;;;;5027142;28;20053;-63
2022/01/18 12:10:38;;;;;;;34.45;13.07;;;7.20;99.90;;;;;;5029377;28;20057;-64
2022/01/18 12:13:22;;;;;;;29.52;11.38;;;7.40;99.90;;;;;;5028660;28;20544;-64
2022/01/18 12:15:51;;;;;;;20.55;8.82;;;7.50;99.90;;;;;;5031045;28;20056;-64
2022/01/18 12:18:25;;;;;;;26.48;9.30;;;7.60;99.90;;;;;;5030756;28;20060;-64
2022/01/18 12:21:06;;;;;;;22.65;8.88;;;7.90;99.90;;;;;;5030285;28;20516;-65
2022/01/18 12:23:34;;;;;;;20.50;8.88;;;8.20;99.90;;;;;;5030532;28;20053;-64
2022/01/18 12:34:33;;;;;;;16.20;8.27;;;8.90;99.90;;;;;;5030357;28;20053;-64
2022/01/18 12:39:50;;;;;;;15.13;5.85;;;9.30;99.90;;;;;;5019490;28;20049;-63
2022/01/18 12:44:20;;;;;;;15.50;6.93;;;9.60;99.90;;;;;;5023889;28;20412;-61
2022/01/18 12:45:27;;;;;;;16.30;7.40;;;9.70;99.90;;;;;;5028119;28;20136;-64
2022/01/18 12:48:08;;;;;;;30.60;7.57;;;9.90;99.90;;;;;;5030088;28;20481;-61
2022/01/18 12:51:08;;;;;;;19.33;8.48;;;10.10;99.90;;;;;;5029496;28;20481;-65
2022/01/18 12:53:39;;;;;;;17.70;7.72;;;10.40;99.90;;;;;;5000403;28;20045;-67
2022/01/18 12:56:09;;;;;;;23.70;12.25;;;10.70;99.90;;;;;;5029591;28;20056;-63
2022/01/18 12:58:42;;;;;;;24.27;9.50;;;10.90;99.90;;;;;;5022293;28;20045;-67
2022/01/18 13:01:16;;;;;;;20.80;9.07;;;11.20;99.90;;;;;;5030155;28;20041;-63
2022/01/18 13:03:46;;;;;;;16.38;8.10;;;11.20;98.60;;;;;;5028654;28;20045;-64
2022/01/18 13:06:19;;;;;;;21.02;9.02;;;11.20;99.90;;;;;;5030068;28;20044;-64
2022/01/18 13:08:50;;;;;;;17.67;8.35;;;11.40;99.90;;;;;;5029405;28;20060;-64
2022/01/18 13:11:22;;;;;;;;;;;11.50;99.90;;;;;;5030111;28;20524;-63
2022/01/18 13:25:02;;;;;;;20.00;8.98;;;11.90;97.90;;;;;;5029495;28;20049;-63
2022/01/18 13:27:35;;;;;;;19.42;8.60;;;12.00;94.20;;;;;;5011436;28;20053;-65
2022/01/18 13:30:05;;;;;;;18.23;9.23;;;12.10;96.50;;;;;;5023947;28;20061;-62
2022/01/18 13:32:34;;;;;;;16.17;8.02;;;12.20;94.40;;;;;;5029186;28;20400;-63
2022/01/18 13:35:04;;;;;;;13.52;7.55;;;12.30;95.00;;;;;;5029249;28;20493;-63
2022/01/18 13:37:37;;;;;;;19.08;7.50;;;12.50;93.30;;;;;;5029332;28;20054;-63
2022/01/18 13:40:15;;;;;;;14.13;6.40;;;12.40;92.80;;;;;;5028270;28;20046;-64
2022/01/18 13:42:49;;;;;;;11.95;4.60;;;12.30;93.70;;;;;;5026658;28;20069;-64
2022/01/18 13:45:25;;;;;;;10.15;4.43;;;12.50;95.70;;;;;;5028229;28;20053;-64
2022/01/18 13:48:06;;;;;;;13.05;5.35;;;12.70;96.20;;;;;;5028767;28;20049;-63
2022/01/18 13:50:45;;;;;;;13.65;6.15;;;13.00;94.10;;;;;;5029394;28;20042;-63
2022/01/18 13:53:18;;;;;;;15.55;5.35;;;12.90;90.20;;;;;;5028440;28;20144;-65
2022/01/18 13:55:56;;;;;;;13.65;5.72;;;12.70;89.90;;;;;;5019883;28;20045;-63
2022/01/18 13:58:26;;;;;;;13.68;7.10;;;12.40;90.70;;;;;;5028340;28;20393;-63
2022/01/18 14:01:06;;;;;;;13.60;7.25;;;12.10;91.40;;;;;;5029009;28;20053;-63
2022/01/18 14:03:37;;;;;;;15.95;6.47;;;11.80;92.60;;;;;;5029054;28;20579;-67
2022/01/18 14:06:06;;;;;;;17.30;6.85;;;11.40;92.90;;;;;;5029059;28;20050;-64
2022/01/18 14:08:50;;;;;;;17.02;7.18;;;11.10;93.90;;;;;;5028492;28;20046;-69
2022/01/18 14:11:23;;;;;;;16.63;7.28;;;10.80;95.50;;;;;;5028796;28;20076;-66
2022/01/18 14:13:53;;;;;;;15.18;7.70;;;10.50;96.30;;;;;;5025820;28;20045;-69
2022/01/18 14:16:28;;;;;;;16.83;8.02;;;10.30;97.10;;;;;;5029016;28;20045;-62
2022/01/18 14:19:05;;;;;;;20.20;7.97;;;9.90;97.20;;;;;;5027178;28;20399;-62
2022/01/18 14:21:49;;;;;;;20.50;6.82;;;9.50;97.30;;;;;;5028730;28;20056;-61